Adak, Alaska
Current Conditions -  °F | °C
As of 10:56 PM on Friday 21 Nov 2014 (Local Time) from PADK Reporting Station
Overcast Overcast  
Wind Chill: 30°   Ceiling: 7000
Heat Index: 39°   Visibility: 10mi
Dew Point: 30°   Wind: 18mph
Humidity: 70%   Direction: 330°NNW
Pressure: 29.3"   Gusts: 25mph
Location:  51.88°N, 176.66°W
Report Text: PADK 220856Z AUTO 33016G22KT 10SM SCT023 BKN070 OVC075 04/M01 A2930 RMK AO1 52017
Loading
Personal Weather Stations






























Interactive Weather Map New forecast layout! Learn more

10-Day Weather Forecast

Advertisements
Track Severe Weather on mobile